createdAt,value
2016-07-22T00:00:45.013Z,69.47
2016-07-22T00:01:45.013Z,69.47
2016-07-22T00:02:45.014Z,69.57
2016-07-22T00:03:45.025Z,69.76
2016-07-22T00:04:45.021Z,69.28
2016-07-22T00:05:45.021Z,69.67
2016-07-22T00:06:45.025Z,69.67
2016-07-22T00:07:45.026Z,69.57
2016-07-22T00:08:45.025Z,69.63
2016-07-22T00:09:45.030Z,70.21
2016-07-22T00:10:45.029Z,70.59
2016-07-22T00:11:45.033Z,70.4
2016-07-22T00:12:45.045Z,70.21
2016-07-22T00:13:45.037Z,69.92
2016-07-22T00:14:45.038Z,70.11
2016-07-22T00:15:45.041Z,70.3
2016-07-22T00:16:45.042Z,70.3
2016-07-22T00:17:45.047Z,70.4
2016-07-22T00:18:45.046Z,70.21
2016-07-22T00:19:45.052Z,70.21
2016-07-22T00:20:45.054Z,70.34
2016-07-22T00:21:45.055Z,70.01
2016-07-22T00:22:45.059Z,70.21
2016-07-22T00:23:45.054Z,70.5
2016-07-22T00:24:45.059Z,70.4
2016-07-22T00:25:45.058Z,70.78
2016-07-22T00:26:45.062Z,70.88
2016-07-22T00:27:45.067Z,71.36
2016-07-22T00:28:45.067Z,71.08
2016-07-22T00:29:45.067Z,71.84
2016-07-22T00:30:45.072Z,71.75
2016-07-22T00:31:45.071Z,71.94
2016-07-22T00:32:45.074Z,72.42
2016-07-22T00:33:45.087Z,72.71
2016-07-22T00:34:45.075Z,72.48
2016-07-22T00:35:45.079Z,72.8
2016-07-22T00:36:45.079Z,73.06
2016-07-22T00:37:45.088Z,73.44
2016-07-22T00:38:45.083Z,72.86
2016-07-22T00:39:45.088Z,73.15
2016-07-22T00:40:45.087Z,73.25
2016-07-22T00:41:45.092Z,72.86
2016-07-22T00:42:45.091Z,72.96
2016-07-22T00:43:45.103Z,72.86
2016-07-22T00:44:45.094Z,73.06
2016-07-22T00:45:45.095Z,72.96
2016-07-22T00:46:45.100Z,73.09
2016-07-22T00:47:45.103Z,73.25
2016-07-22T00:48:45.108Z,73.06
2016-07-22T00:49:45.113Z,73.35
2016-07-22T00:50:45.108Z,73.06
2016-07-22T00:51:45.113Z,73.06
2016-07-22T00:52:45.111Z,72.77
2016-07-22T00:53:45.112Z,73.06
2016-07-22T00:54:45.116Z,73.09
2016-07-22T00:55:45.117Z,72.96
2016-07-22T00:56:45.121Z,72.96
2016-07-22T00:57:45.121Z,73.35
2016-07-22T00:58:45.125Z,73.25
2016-07-22T00:59:45.128Z,72.58
2016-07-22T01:00:45.128Z,72.58
2016-07-22T01:01:44.408Z,72.86
2016-07-22T01:02:44.409Z,73.28
2016-07-22T01:03:45.133Z,73.06
2016-07-22T01:04:45.134Z,73.06
2016-07-22T01:05:45.137Z,73.25
2016-07-22T01:06:45.137Z,73.06
2016-07-22T01:07:45.141Z,72.77
2016-07-22T01:08:45.141Z,73.06
2016-07-22T01:09:45.145Z,73.15
2016-07-22T01:10:45.146Z,73.44
2016-07-22T01:11:45.146Z,74.11
2016-07-22T01:12:45.158Z,74.21
2016-07-22T01:13:45.150Z,73.92
2016-07-22T01:14:45.153Z,74.6
2016-07-22T01:15:45.153Z,74.85
2016-07-22T01:16:45.158Z,74.75
2016-07-22T01:17:45.157Z,75.52
2016-07-22T01:18:45.161Z,75.04
2016-07-22T01:19:45.162Z,75.13
2016-07-22T01:20:45.165Z,75.42
2016-07-22T01:21:45.165Z,75.81
2016-07-22T01:22:45.165Z,75.81
2016-07-22T01:23:45.170Z,76.19
2016-07-22T01:24:45.170Z,76.09
2016-07-22T01:25:45.174Z,76.57
2016-07-22T01:26:45.174Z,76.77
2016-07-22T01:27:45.177Z,76.57
2016-07-22T01:28:45.178Z,76.82
2016-07-22T01:29:45.182Z,77.15
2016-07-22T01:30:45.182Z,77.31
2016-07-22T01:31:45.186Z,77.59
2016-07-22T01:32:45.189Z,77.5
2016-07-22T01:33:45.191Z,77.88
2016-07-22T01:34:45.190Z,77.69
2016-07-22T01:35:45.190Z,77.73
2016-07-22T01:36:45.194Z,77.92
2016-07-22T01:37:45.194Z,77.88
2016-07-22T01:38:45.198Z,77.73
2016-07-22T01:39:45.197Z,77.63
2016-07-22T01:40:45.202Z,77.63
2016-07-22T01:41:45.201Z,77.73
2016-07-22T01:42:45.201Z,77.73
2016-07-22T01:43:45.206Z,77.73
2016-07-22T01:44:45.205Z,77.63
2016-07-22T01:45:45.210Z,78.21
2016-07-22T01:46:45.218Z,78.3
2016-07-22T01:47:45.214Z,78.21
2016-07-22T01:48:45.214Z,77.92
2016-07-22T01:49:45.218Z,77.73
2016-07-22T01:50:45.218Z,78.69
2016-07-22T01:51:45.226Z,78.59
2016-07-22T01:52:45.223Z,78.4
2016-07-22T01:53:45.222Z,78.27
2016-07-22T01:54:45.227Z,78.94
2016-07-22T01:55:45.227Z,78.69
2016-07-22T01:56:45.230Z,79.22
2016-07-22T01:57:45.231Z,78.75
2016-07-22T01:58:45.230Z,79.13
2016-07-22T01:59:45.234Z,79.03
2016-07-22T02:00:45.251Z,79.52
2016-07-22T02:01:45.238Z,79.22
2016-07-22T02:02:45.239Z,79.42
2016-07-22T02:03:45.243Z,79.32
2016-07-22T02:04:45.243Z,79.42
2016-07-22T02:05:45.247Z,79.9
2016-07-22T02:06:45.246Z,79.61
2016-07-22T02:07:45.251Z,79.71
2016-07-22T02:08:45.251Z,79.8
2016-07-22T02:09:45.251Z,79.8
2016-07-22T02:10:45.255Z,80.05
2016-07-22T02:11:45.256Z,79.76
2016-07-22T02:12:45.259Z,80.76
2016-07-22T02:13:45.259Z,80.53
2016-07-22T02:14:45.260Z,80.24
2016-07-22T02:15:45.263Z,80.53
2016-07-22T02:16:45.272Z,80.24
2016-07-22T02:17:45.267Z,80.15
2016-07-22T02:18:45.268Z,80.91
2016-07-22T02:19:45.272Z,80.63
2016-07-22T02:20:45.272Z,81.1
2016-07-22T02:21:45.276Z,80.82
2016-07-22T02:22:45.280Z,81.3
2016-07-22T02:23:45.277Z,81.01
2016-07-22T02:24:45.280Z,81.4
2016-07-22T02:25:45.280Z,81.1
2016-07-22T02:26:45.284Z,81.1
2016-07-22T02:27:45.284Z,81.2
2016-07-22T02:28:45.289Z,81.3
2016-07-22T02:29:45.287Z,81.3
2016-07-22T02:30:45.300Z,81.3
2016-07-22T02:31:45.297Z,81.2
2016-07-22T02:32:45.293Z,80.91
2016-07-22T02:33:45.300Z,81.1
2016-07-22T02:34:45.296Z,81.3
2016-07-22T02:35:45.300Z,81.1
2016-07-22T02:36:45.304Z,81.3
2016-07-22T02:37:45.300Z,80.91
2016-07-22T02:38:45.304Z,80.73
2016-07-22T02:39:45.304Z,81.1
2016-07-22T02:40:45.309Z,81.24
2016-07-22T02:41:45.308Z,81.15
2016-07-22T02:42:45.312Z,81.15
2016-07-22T02:43:45.313Z,81.24
2016-07-22T02:44:45.317Z,81.05
2016-07-22T02:45:45.317Z,80.86
2016-07-22T02:46:45.317Z,80.96
2016-07-22T02:47:45.323Z,81.15
2016-07-22T02:48:45.321Z,80.86
2016-07-22T02:49:45.324Z,81.05
2016-07-22T02:50:45.325Z,81.2
2016-07-22T02:51:45.328Z,81.2
2016-07-22T02:52:45.329Z,81.59
2016-07-22T02:53:45.329Z,81.59
2016-07-22T02:54:45.333Z,81.59
2016-07-22T02:55:45.333Z,81.3
2016-07-22T02:56:45.332Z,81.15
2016-07-22T02:57:45.337Z,80.47
2016-07-22T02:58:45.337Z,80.66
2016-07-22T02:59:45.341Z,80.66
2016-07-22T03:00:45.341Z,81.05
2016-07-22T03:01:45.345Z,80.96
2016-07-22T03:02:45.345Z,80.66
2016-07-22T03:03:45.350Z,80.91
2016-07-22T03:04:45.349Z,81.24
2016-07-22T03:05:45.349Z,81.1
2016-07-22T03:06:45.358Z,81.1
2016-07-22T03:07:45.353Z,81.68
2016-07-22T03:08:45.357Z,81.87
2016-07-22T03:09:45.357Z,81.97
2016-07-22T03:10:45.361Z,82.07
2016-07-22T03:11:45.361Z,81.68
2016-07-22T03:12:45.361Z,82.16
2016-07-22T03:13:45.366Z,82.26
2016-07-22T03:14:45.365Z,82.74
2016-07-22T03:15:45.369Z,82.93
2016-07-22T03:16:45.369Z,82.35
2016-07-22T03:17:44.649Z,82.7
2016-07-22T03:18:44.653Z,83.31
2016-07-22T03:19:45.374Z,83.08
2016-07-22T03:20:45.377Z,82.98
2016-07-22T03:21:45.378Z,83.08
2016-07-22T03:22:45.377Z,83.37
2016-07-22T03:23:45.378Z,83.27
2016-07-22T03:24:45.381Z,83.65
2016-07-22T03:25:45.394Z,83.37
2016-07-22T03:26:45.385Z,83.65
2016-07-22T03:27:45.389Z,83.75
2016-07-22T03:28:45.390Z,83.75
2016-07-22T03:29:45.390Z,83.56
2016-07-22T03:30:45.394Z,83.75
2016-07-22T03:31:45.394Z,83.75
2016-07-22T03:32:45.394Z,84.23
2016-07-22T03:33:45.394Z,84.23
2016-07-22T03:34:45.398Z,84.61
2016-07-22T03:35:45.402Z,84.52
2016-07-22T03:36:45.402Z,84.71
2016-07-22T03:37:45.406Z,84.61
2016-07-22T03:38:45.406Z,84.91
2016-07-22T03:39:45.405Z,84.42
2016-07-22T03:40:45.410Z,84.61
2016-07-22T03:41:45.410Z,84.91
2016-07-22T03:42:45.410Z,84.71
2016-07-22T03:43:45.414Z,84.61
2016-07-22T03:44:45.414Z,84.81
2016-07-22T03:45:45.418Z,84.66
2016-07-22T03:46:45.419Z,84.27
2016-07-22T03:47:45.422Z,84.18
2016-07-22T03:48:45.422Z,83.7
2016-07-22T03:49:45.422Z,83.98
2016-07-22T03:50:45.426Z,83.41
2016-07-22T03:51:45.425Z,83.03
2016-07-22T03:52:45.430Z,83.12
2016-07-22T03:53:44.710Z,82.4
2016-07-22T03:54:45.430Z,82.97
2016-07-22T03:55:45.434Z,82.4
2016-07-22T03:56:45.434Z,82.3
2016-07-22T03:57:45.439Z,81.92
2016-07-22T03:58:45.438Z,81.72
2016-07-22T03:59:45.438Z,81.82
2016-07-22T04:00:45.442Z,82.1
2016-07-22T04:01:45.442Z,81.63
2016-07-22T04:02:45.447Z,81.63
2016-07-22T04:03:45.446Z,81.43
2016-07-22T04:04:45.446Z,81.72
2016-07-22T04:05:45.451Z,81.43
2016-07-22T04:06:45.450Z,80.96
2016-07-22T04:07:45.450Z,81.63
2016-07-22T04:08:45.454Z,81.05
2016-07-22T04:09:45.454Z,80.99
2016-07-22T04:10:45.459Z,80.8
2016-07-22T04:11:45.458Z,80.22
2016-07-22T04:12:45.459Z,80.61
2016-07-22T04:13:45.463Z,80.07
2016-07-22T04:14:45.462Z,79.69
2016-07-22T04:15:45.467Z,79.3
2016-07-22T04:16:45.466Z,78.34
2016-07-22T04:17:45.467Z,77.86
2016-07-22T04:18:45.471Z,77.04
2016-07-22T04:19:45.470Z,76.56
2016-07-22T04:20:45.471Z,76.07
2016-07-22T04:21:45.475Z,75.98
2016-07-22T04:22:45.475Z,75.88
2016-07-22T04:23:45.479Z,75.79
2016-07-22T04:24:45.479Z,75.49
2016-07-22T04:25:45.480Z,75.73
2016-07-22T04:26:45.483Z,75.44
2016-07-22T04:27:45.483Z,75.73
2016-07-22T04:28:45.486Z,74.96
2016-07-22T04:29:45.499Z,74.86
2016-07-22T04:30:45.491Z,74.86
2016-07-22T04:31:45.491Z,74.86
2016-07-22T04:32:45.492Z,74.86
2016-07-22T04:33:45.495Z,75.05
2016-07-22T04:34:45.495Z,75.05
2016-07-22T04:35:45.494Z,75.05
2016-07-22T04:36:45.503Z,75.05
2016-07-22T04:37:45.499Z,74.76
2016-07-22T04:38:45.499Z,74.96
2016-07-22T04:39:45.503Z,74.67
2016-07-22T04:40:45.504Z,74.57
2016-07-22T04:41:45.507Z,74.57
2016-07-22T04:42:45.507Z,74.48
2016-07-22T04:43:45.512Z,74.67
2016-07-22T04:44:45.511Z,74.67
2016-07-22T04:45:45.516Z,74.67
2016-07-22T04:46:45.520Z,74.76
2016-07-22T04:47:45.515Z,74.86
2016-07-22T04:48:45.520Z,74.96
2016-07-22T04:49:45.522Z,75.05
2016-07-22T04:50:45.520Z,74.76
2016-07-22T04:51:45.529Z,74.96
2016-07-22T04:52:45.524Z,75.24
2016-07-22T04:53:45.528Z,75.73
2016-07-22T04:54:45.533Z,75.82
2016-07-22T04:55:45.529Z,75.34
2016-07-22T04:56:45.533Z,75.34
2016-07-22T04:57:45.531Z,75.34
2016-07-22T04:58:45.536Z,75.34
2016-07-22T04:59:45.536Z,75.73
2016-07-22T05:00:45.536Z,75.15
2016-07-22T05:01:45.540Z,74.96
2016-07-22T05:02:45.550Z,75.44
2016-07-22T05:03:45.544Z,75.24
2016-07-22T05:04:45.544Z,75.05
2016-07-22T05:05:45.544Z,75.54
2016-07-22T05:06:45.548Z,75.54
2016-07-22T05:07:45.548Z,75.54
2016-07-22T05:08:45.555Z,75.24
2016-07-22T05:09:45.556Z,74.51
2016-07-22T05:10:45.557Z,73.84
2016-07-22T05:11:45.561Z,73.88
2016-07-22T05:12:45.557Z,73.01
2016-07-22T05:13:45.560Z,73.2
2016-07-22T05:14:45.560Z,72.33
2016-07-22T05:15:45.561Z,73.1
2016-07-22T05:16:45.565Z,73.39
2016-07-22T05:17:45.565Z,72.97
2016-07-22T05:18:45.569Z,73.84
2016-07-22T05:19:45.569Z,73.55
2016-07-22T05:20:45.568Z,73.46
2016-07-22T05:21:45.573Z,74.03
2016-07-22T05:22:45.574Z,73.55
2016-07-22T05:23:45.577Z,73.84
2016-07-22T05:24:45.577Z,73.84
2016-07-22T05:25:45.577Z,74.03
2016-07-22T05:26:45.581Z,74.32
2016-07-22T05:27:45.581Z,74.41
2016-07-22T05:28:45.584Z,74.03
2016-07-22T05:29:45.584Z,73.74
2016-07-22T05:30:45.587Z,73.26
2016-07-22T05:31:45.589Z,73.01
2016-07-22T05:32:45.589Z,72.91
2016-07-22T05:33:45.593Z,72.91
2016-07-22T05:34:45.594Z,72.14
2016-07-22T05:35:45.600Z,71.7
2016-07-22T05:36:44.879Z,71.12
2016-07-22T05:37:45.597Z,71.31
2016-07-22T05:38:45.601Z,70.83
2016-07-22T05:39:45.601Z,70.35
2016-07-22T05:40:45.603Z,70
2016-07-22T05:41:45.606Z,68.65
2016-07-22T05:42:45.607Z,68.68
2016-07-22T05:43:45.659Z,68.39
2016-07-22T05:44:45.609Z,68.45
2016-07-22T05:45:45.611Z,68.49
2016-07-22T05:46:45.614Z,68.87
2016-07-22T05:47:45.614Z,68.68
2016-07-22T05:48:45.618Z,68.29
2016-07-22T05:49:45.618Z,68.49
2016-07-22T05:50:45.618Z,68.55
2016-07-22T05:51:45.622Z,68.45
2016-07-22T05:52:45.623Z,68.49
2016-07-22T05:53:45.622Z,68.19
2016-07-22T05:54:45.626Z,68.45
2016-07-22T05:55:45.626Z,68.19
2016-07-22T05:56:45.634Z,68.26
2016-07-22T05:57:45.631Z,68.59
2016-07-22T05:58:45.631Z,68.55
2016-07-22T05:59:45.639Z,68.59
2016-07-22T06:00:45.635Z,68.74
2016-07-22T06:01:45.639Z,68.59
2016-07-22T06:02:45.639Z,68.49
2016-07-22T06:03:45.643Z,68.68
2016-07-22T06:04:45.643Z,68.23
2016-07-22T06:05:45.647Z,67.27
2016-07-22T06:06:45.648Z,67.3
2016-07-22T06:07:45.652Z,66.08
2016-07-22T06:08:45.651Z,64.21
2016-07-22T06:09:45.651Z,62.5
2016-07-22T06:10:45.652Z,59.97
2016-07-22T06:11:45.656Z,57.32
2016-07-22T06:12:45.654Z,54.56
2016-07-22T06:13:45.660Z,52.01
2016-07-22T06:14:45.667Z,50.31
2016-07-22T06:15:45.659Z,48.71
2016-07-22T06:16:45.663Z,47.17
2016-07-22T06:17:45.663Z,45.25
2016-07-22T06:18:45.668Z,44.48
2016-07-22T06:19:45.671Z,43.82
2016-07-22T06:20:45.672Z,43.07
2016-07-22T06:21:45.671Z,42.19
2016-07-22T06:22:45.675Z,41.8
2016-07-22T06:23:45.676Z,41.6
2016-07-22T06:24:45.685Z,41.03
2016-07-22T06:25:45.680Z,40.55
2016-07-22T06:26:45.680Z,40.45
2016-07-22T06:27:45.684Z,40.16
2016-07-22T06:28:45.684Z,39.86
2016-07-22T06:29:45.687Z,40.04
2016-07-22T06:30:45.688Z,40.23
2016-07-22T06:31:45.688Z,40.8
2016-07-22T06:32:45.697Z,41.28
2016-07-22T06:33:45.692Z,41.09
2016-07-22T06:34:45.701Z,41.46
2016-07-22T06:35:45.695Z,41.17
2016-07-22T06:36:45.700Z,41.46
2016-07-22T06:37:45.700Z,40.68
2016-07-22T06:38:45.700Z,39.82
2016-07-22T06:39:44.985Z,38.3
2016-07-22T06:40:45.704Z,36.67
2016-07-22T06:41:45.708Z,35.06
2016-07-22T06:42:45.709Z,33.15
2016-07-22T06:43:45.712Z,31.22
2016-07-22T06:44:45.712Z,29.89
2016-07-22T06:45:45.716Z,28.65
2016-07-22T06:46:45.716Z,27.87
2016-07-22T06:47:45.716Z,26.32
2016-07-22T06:48:45.720Z,25.37
2016-07-22T06:49:45.721Z,25.08
2016-07-22T06:50:45.724Z,25.38
2016-07-22T06:51:45.724Z,25.46
2016-07-22T06:52:45.732Z,25.76
2016-07-22T06:53:45.729Z,26.13
2016-07-22T06:54:45.733Z,26.42
2016-07-22T06:55:45.733Z,27
2016-07-22T06:56:45.738Z,26.79
2016-07-22T06:57:45.736Z,26.89
2016-07-22T06:58:45.737Z,26.7
2016-07-22T06:59:45.741Z,26.79
2016-07-22T07:00:45.741Z,27.58
2016-07-22T07:01:45.745Z,28.16
2016-07-22T07:02:45.022Z,28.34
2016-07-22T07:03:45.748Z,28.33
2016-07-22T07:04:45.754Z,28.61
2016-07-22T07:05:45.753Z,28.41
2016-07-22T07:06:45.753Z,27.74
2016-07-22T07:07:45.757Z,26.88
2016-07-22T07:08:45.757Z,25.71
2016-07-22T07:09:45.761Z,24.75
2016-07-22T07:10:45.762Z,24.38
2016-07-22T07:11:45.761Z,23.22
2016-07-22T07:12:45.765Z,22.34
2016-07-22T07:13:45.770Z,21.58
2016-07-22T07:14:45.769Z,21.2
2016-07-22T07:15:45.774Z,20.72
2016-07-22T07:16:45.774Z,20.23
2016-07-22T07:17:45.778Z,20.43
2016-07-22T07:18:45.778Z,21.01
2016-07-22T07:19:45.782Z,21.29
2016-07-22T07:20:45.785Z,21.58
2016-07-22T07:21:45.785Z,21.47
2016-07-22T07:22:45.785Z,21.27
2016-07-22T07:23:45.789Z,20.97
2016-07-22T07:24:45.789Z,20.29
2016-07-22T07:25:45.794Z,19.71
2016-07-22T07:26:45.798Z,19.23
2016-07-22T07:27:45.799Z,19.33
2016-07-22T07:28:45.797Z,19.82
2016-07-22T07:29:45.801Z,20.41
2016-07-22T07:30:45.806Z,21.56
2016-07-22T07:31:45.807Z,22.44
2016-07-22T07:32:45.810Z,23.4
2016-07-22T07:33:45.810Z,24.27
2016-07-22T07:34:45.810Z,25.13
2016-07-22T07:35:45.813Z,25.5
2016-07-22T07:36:45.818Z,26.75
2016-07-22T07:37:45.817Z,27.53
2016-07-22T07:38:45.822Z,28.2
2016-07-22T07:39:45.822Z,28.96
2016-07-22T07:40:45.825Z,29.73
2016-07-22T07:41:45.826Z,30.4
2016-07-22T07:42:45.833Z,30.98
2016-07-22T07:43:45.882Z,31.45
2016-07-22T07:44:45.834Z,32.23
2016-07-22T07:45:45.834Z,32.22
2016-07-22T07:46:45.838Z,32.79
2016-07-22T07:47:45.842Z,33.17
2016-07-22T07:48:45.842Z,33.56
2016-07-22T07:49:45.847Z,34.33
2016-07-22T07:50:45.846Z,34.52
2016-07-22T07:51:45.851Z,35.38
2016-07-22T07:52:45.846Z,35.28
2016-07-22T07:53:45.855Z,35.87
2016-07-22T07:54:45.857Z,36.16
2016-07-22T07:55:45.875Z,36.54
2016-07-22T07:56:45.859Z,37.02
2016-07-22T07:57:45.862Z,37.21
2016-07-22T07:58:45.867Z,37.7
2016-07-22T07:59:45.867Z,37.5
2016-07-22T08:00:45.871Z,38.16
2016-07-22T08:01:45.872Z,37.87
2016-07-22T08:02:45.875Z,38.63
2016-07-22T08:03:45.874Z,38.92
2016-07-22T08:04:45.879Z,39.8
2016-07-22T08:05:45.883Z,39.7
2016-07-22T08:06:45.883Z,40.08
2016-07-22T08:07:45.883Z,40.37
2016-07-22T08:08:45.891Z,41.52
2016-07-22T08:09:45.891Z,41.91
2016-07-22T08:10:45.895Z,41.81
2016-07-22T08:11:45.894Z,42
2016-07-22T08:12:45.911Z,42.1
2016-07-22T08:13:45.900Z,42.28
2016-07-22T08:14:45.899Z,42.28
2016-07-22T08:15:45.904Z,42.18
2016-07-22T08:16:45.907Z,42.38
2016-07-22T08:17:45.908Z,42.49
2016-07-22T08:18:45.912Z,42.3
2016-07-22T08:19:45.912Z,42.1
2016-07-22T08:20:45.912Z,42.1
2016-07-22T08:21:45.915Z,42.1
2016-07-22T08:22:45.928Z,41.61
2016-07-22T08:23:45.919Z,41.52
2016-07-22T08:24:45.924Z,42.2
2016-07-22T08:25:45.923Z,42.1
2016-07-22T08:26:45.927Z,42
2016-07-22T08:27:45.932Z,41.91
2016-07-22T08:28:45.932Z,41.61
2016-07-22T08:29:45.935Z,41.22
2016-07-22T08:30:45.941Z,41.52
2016-07-22T08:31:45.940Z,41.61
2016-07-22T08:32:45.940Z,41.71
2016-07-22T08:33:45.961Z,41.71
2016-07-22T08:34:45.949Z,41.71
2016-07-22T08:35:45.948Z,41.91
2016-07-22T08:36:45.953Z,41.91
2016-07-22T08:37:45.952Z,41.71
2016-07-22T08:38:45.967Z,41.73
2016-07-22T08:39:45.956Z,41.25
2016-07-22T08:40:45.960Z,41.05
2016-07-22T08:41:45.961Z,40.58
2016-07-22T08:42:45.965Z,40.19
2016-07-22T08:43:45.964Z,40.19
2016-07-22T08:44:45.970Z,39.62
2016-07-22T08:45:45.972Z,39.62
2016-07-22T08:46:45.973Z,38.94
2016-07-22T08:47:45.977Z,39.06
2016-07-22T08:48:45.976Z,38.96
2016-07-22T08:49:45.981Z,38.87
2016-07-22T08:50:45.980Z,38.38
2016-07-22T08:51:45.984Z,38.28
2016-07-22T08:52:45.988Z,37.62
2016-07-22T08:53:45.988Z,37.91
2016-07-22T08:54:45.992Z,37.91
2016-07-22T08:55:45.993Z,37.91
2016-07-22T08:56:45.996Z,37.93
2016-07-22T08:57:46.003Z,36.77
2016-07-22T08:58:46.000Z,35.81
2016-07-22T08:59:46.005Z,34.55
2016-07-22T09:00:46.005Z,33.69
2016-07-22T09:01:46.012Z,33.41
2016-07-22T09:02:46.007Z,33.72
2016-07-22T09:03:46.060Z,33.53
2016-07-22T09:04:46.016Z,33.23
2016-07-22T09:05:46.016Z,32.28
2016-07-22T09:06:46.017Z,32.01
2016-07-22T09:07:46.021Z,30.85
2016-07-22T09:08:46.024Z,30.3
2016-07-22T09:09:46.025Z,29.92
2016-07-22T09:10:46.029Z,29.44
2016-07-22T09:11:46.032Z,28.95
2016-07-22T09:12:46.033Z,26.89
2016-07-22T09:13:46.037Z,26.2
2016-07-22T09:14:46.037Z,26.29
2016-07-22T09:15:46.041Z,26.09
2016-07-22T09:16:46.040Z,25.99
2016-07-22T09:17:46.045Z,26.97
2016-07-22T09:18:46.049Z,26.87
2016-07-22T09:19:46.048Z,27.25
2016-07-22T09:20:46.053Z,27.72
2016-07-22T09:21:46.053Z,28.22
2016-07-22T09:22:45.337Z,28.58
2016-07-22T09:23:46.057Z,29.53
2016-07-22T09:24:46.067Z,30.12
2016-07-22T09:25:46.066Z,30.6
2016-07-22T09:26:46.065Z,30.99
2016-07-22T09:27:46.069Z,30.8
2016-07-22T09:28:46.073Z,30.8
2016-07-22T09:29:46.073Z,30.01
2016-07-22T09:30:46.072Z,30.88
2016-07-22T09:31:46.076Z,32.32
2016-07-22T09:32:46.081Z,33.18
2016-07-22T09:33:46.085Z,33.65
2016-07-22T09:34:46.085Z,34.34
2016-07-22T09:35:46.089Z,34.33
2016-07-22T09:36:46.094Z,34.68
2016-07-22T09:37:46.094Z,35.66
2016-07-22T09:38:46.097Z,36.13
2016-07-22T09:39:46.102Z,36.98
2016-07-22T09:40:46.100Z,37.46
2016-07-22T09:41:46.117Z,37.83
2016-07-22T09:42:46.110Z,38.2
2016-07-22T09:43:46.158Z,38.4
2016-07-22T09:44:46.109Z,39.08
2016-07-22T09:45:46.113Z,39.67
2016-07-22T09:46:46.117Z,39.55
2016-07-22T09:47:46.117Z,39.55
2016-07-22T09:48:46.122Z,39.65
2016-07-22T09:49:46.121Z,40.23
2016-07-22T09:50:46.125Z,40.23
2016-07-22T09:51:46.129Z,40.33
2016-07-22T09:52:46.130Z,39.94
2016-07-22T09:53:46.133Z,39.76
2016-07-22T09:54:46.142Z,39.06
2016-07-22T09:55:46.238Z,39.47
2016-07-22T09:56:46.142Z,39.96
2016-07-22T09:57:46.146Z,39.57
2016-07-22T09:58:46.145Z,40.35
2016-07-22T09:59:46.145Z,40.03
2016-07-22T10:00:46.149Z,40.13
2016-07-22T10:01:46.155Z,40.35
2016-07-22T10:02:46.157Z,40.64
2016-07-22T10:03:46.158Z,41.13
2016-07-22T10:04:46.162Z,41.4
2016-07-22T10:05:46.166Z,41.2
2016-07-22T10:06:46.166Z,41.5
2016-07-22T10:07:46.169Z,41.11
2016-07-22T10:08:46.174Z,40.35
2016-07-22T10:09:46.174Z,40.25
2016-07-22T10:10:46.182Z,39.98
2016-07-22T10:11:46.178Z,39.39
2016-07-22T10:12:46.182Z,39.59
2016-07-22T10:13:46.194Z,38.73
2016-07-22T10:14:46.186Z,37.85
2016-07-22T10:15:46.190Z,37.65
2016-07-22T10:16:46.193Z,37.93
2016-07-22T10:17:46.194Z,38.61
2016-07-22T10:18:46.199Z,39.57
2016-07-22T10:19:46.202Z,39.84
2016-07-22T10:20:46.201Z,40.33
2016-07-22T10:21:46.207Z,40.52
2016-07-22T10:22:46.211Z,39.94
2016-07-22T10:23:46.211Z,39.76
2016-07-22T10:24:46.215Z,38.98
2016-07-22T10:25:46.210Z,39.49
2016-07-22T10:26:46.218Z,39
2016-07-22T10:27:46.223Z,39.7
2016-07-22T10:28:46.228Z,39.7
2016-07-22T10:29:46.226Z,39.7
2016-07-22T10:30:46.230Z,39.23
2016-07-22T10:31:46.231Z,39.43
2016-07-22T10:32:46.234Z,38.94
2016-07-22T10:33:46.239Z,37.77
2016-07-22T10:34:45.519Z,37.87
2016-07-22T10:35:46.243Z,37.57
2016-07-22T10:36:46.247Z,37.55
2016-07-22T10:37:46.246Z,37.38
2016-07-22T10:38:46.251Z,37.09
2016-07-22T10:39:46.255Z,37.85
2016-07-22T10:40:46.255Z,37.55
2016-07-22T10:41:46.267Z,37.83
2016-07-22T10:42:46.263Z,37.43
2016-07-22T10:43:46.263Z,36.74
2016-07-22T10:44:46.267Z,36.25
2016-07-22T10:45:46.271Z,35.88
2016-07-22T10:46:46.271Z,36.16
2016-07-22T10:47:46.275Z,36.94
2016-07-22T10:48:46.275Z,37.23
2016-07-22T10:49:46.279Z,37.12
2016-07-22T10:50:46.284Z,37.6
2016-07-22T10:51:46.283Z,37.5
2016-07-22T10:52:46.320Z,37.91
2016-07-22T10:53:46.294Z,38.4
2016-07-22T10:54:46.291Z,38.2
2016-07-22T10:55:46.296Z,38.4
2016-07-22T10:56:46.299Z,38.59
2016-07-22T10:57:46.303Z,38.4
2016-07-22T10:58:46.299Z,38.96
2016-07-22T10:59:46.307Z,38.38
2016-07-22T11:00:46.308Z,38.67
2016-07-22T11:01:46.312Z,38.1
2016-07-22T11:02:46.315Z,38.2
2016-07-22T11:03:46.320Z,38.18
2016-07-22T11:04:46.321Z,38.87
2016-07-22T11:05:46.324Z,38.65
2016-07-22T11:06:46.328Z,38.26
2016-07-22T11:07:46.328Z,38.75
2016-07-22T11:08:46.333Z,39.72
2016-07-22T11:09:46.332Z,39.62
2016-07-22T11:10:46.336Z,40.11
2016-07-22T11:11:46.340Z,40.7
2016-07-22T11:12:46.340Z,40.7
2016-07-22T11:13:46.340Z,40.6
2016-07-22T11:14:46.348Z,40.8
2016-07-22T11:15:46.353Z,40.99
2016-07-22T11:16:46.353Z,41.19
2016-07-22T11:17:46.357Z,41.28
2016-07-22T11:18:46.360Z,41.38
2016-07-22T11:19:46.361Z,41.67
2016-07-22T11:20:46.365Z,42.65
2016-07-22T11:21:46.364Z,45.08
2016-07-22T11:22:46.369Z,44.89
2016-07-22T11:23:46.372Z,45.18
2016-07-22T11:24:46.373Z,45.57
2016-07-22T11:25:46.377Z,45.86
2016-07-22T11:26:46.386Z,46.25
2016-07-22T11:27:46.381Z,46.73
2016-07-22T11:28:46.385Z,46.08
2016-07-22T11:29:46.389Z,46.56
2016-07-22T11:30:46.393Z,45.71
2016-07-22T11:31:46.393Z,44.05
2016-07-22T11:32:46.397Z,42.22
2016-07-22T11:33:46.410Z,42.2
2016-07-22T11:34:46.401Z,42.61
2016-07-22T11:35:46.404Z,42.51
2016-07-22T11:36:46.405Z,43
2016-07-22T11:37:46.410Z,43.78
2016-07-22T11:38:46.413Z,43.99
2016-07-22T11:39:46.413Z,44.09
2016-07-22T11:40:46.420Z,44.41
2016-07-22T11:41:46.421Z,44.41
2016-07-22T11:42:46.420Z,44.41
2016-07-22T11:43:46.477Z,43.82
2016-07-22T11:44:46.430Z,44.51
2016-07-22T11:45:46.429Z,44.6
2016-07-22T11:46:46.434Z,44.6
2016-07-22T11:47:46.437Z,44.31
2016-07-22T11:48:46.437Z,44.14
2016-07-22T11:49:46.441Z,43.65
2016-07-22T11:50:46.449Z,42.97
2016-07-22T11:51:46.445Z,43.48
2016-07-22T11:52:46.453Z,43.55
2016-07-22T11:53:46.454Z,44.14
2016-07-22T11:54:46.454Z,43.75
2016-07-22T11:55:46.458Z,43.73
2016-07-22T11:56:46.473Z,40.89
2016-07-22T11:57:46.462Z,39.72
2016-07-22T11:58:46.469Z,39.82
2016-07-22T11:59:46.470Z,39.7
2016-07-22T12:00:46.469Z,39.7
2016-07-22T12:01:46.474Z,38.81
2016-07-22T12:02:46.481Z,39.69
2016-07-22T12:03:46.478Z,40.35
2016-07-22T12:04:46.482Z,40.45
2016-07-22T12:05:46.486Z,40.13
2016-07-22T12:06:46.486Z,40.33
2016-07-22T12:07:46.491Z,41.19
2016-07-22T12:08:46.494Z,41.38
2016-07-22T12:09:46.494Z,41.48
2016-07-22T12:10:46.498Z,41.75
2016-07-22T12:11:46.502Z,41.65
2016-07-22T12:12:46.503Z,42.24
2016-07-22T12:13:46.506Z,42.24
2016-07-22T12:14:46.823Z,42.24
2016-07-22T12:15:46.511Z,42.16
2016-07-22T12:16:46.515Z,41.86
2016-07-22T12:17:46.519Z,41.48
2016-07-22T12:18:46.518Z,41.19
2016-07-22T12:19:46.523Z,41.38
2016-07-22T12:20:46.526Z,41.09
2016-07-22T12:21:46.526Z,41.6
2016-07-22T12:22:46.531Z,41.2
2016-07-22T12:23:46.535Z,41.11
2016-07-22T12:24:46.541Z,41.11
2016-07-22T12:25:46.534Z,40.62
2016-07-22T12:26:46.543Z,40.23
2016-07-22T12:27:46.544Z,40.72
2016-07-22T12:28:46.546Z,40.33
2016-07-22T12:29:46.551Z,40.25
2016-07-22T12:30:46.552Z,40.16
2016-07-22T12:31:46.555Z,40.42
2016-07-22T12:32:46.559Z,41.4
2016-07-22T12:33:46.559Z,41.01
2016-07-22T12:34:46.563Z,40.62
2016-07-22T12:35:46.567Z,40.42
2016-07-22T12:36:46.571Z,40.23
2016-07-22T12:37:46.571Z,40.23
2016-07-22T12:38:46.577Z,40.13
2016-07-22T12:39:46.580Z,40.25
2016-07-22T12:40:46.580Z,39.76
2016-07-22T12:41:46.584Z,39.76
2016-07-22T12:42:46.588Z,40.23
2016-07-22T12:43:46.592Z,40.81
2016-07-22T12:44:46.592Z,41.11
2016-07-22T12:45:46.595Z,40.99
2016-07-22T12:46:46.600Z,41.28
2016-07-22T12:47:46.600Z,41.38
2016-07-22T12:48:46.604Z,40.52
2016-07-22T12:49:46.604Z,40.5
2016-07-22T12:50:46.603Z,40.5
2016-07-22T12:51:46.611Z,39.82
2016-07-22T12:52:46.611Z,40.11
2016-07-22T12:53:46.615Z,40.31
2016-07-22T12:54:46.620Z,40.7
2016-07-22T12:55:46.619Z,41.26
2016-07-22T12:56:46.624Z,41.38